createdAt,value
2019-01-02T00:00:23.544Z,3.60
2019-01-02T00:02:52.075Z,3.60
2019-01-02T00:05:20.543Z,3.60
2019-01-02T00:07:50.068Z,3.90
2019-01-02T00:10:18.974Z,3.70
2019-01-02T00:12:47.536Z,3.60
2019-01-02T00:15:16.406Z,3.60
2019-01-02T00:17:44.969Z,3.70
2019-01-02T00:20:15.864Z,3.60
2019-01-02T00:22:44.438Z,3.60
2019-01-02T00:25:13.564Z,3.40
2019-01-02T00:27:42.095Z,3.60
2019-01-02T00:30:10.826Z,3.20
2019-01-02T00:32:39.648Z,3.60
2019-01-02T00:35:08.663Z,3.60
2019-01-02T00:37:37.668Z,3.60
2019-01-02T00:40:11.824Z,3.70
2019-01-02T00:42:40.827Z,3.70
2019-01-02T00:45:09.826Z,3.70
2019-01-02T00:47:38.691Z,3.90
2019-01-02T00:50:10.256Z,4.30
2019-01-02T00:52:39.107Z,3.70
2019-01-02T00:55:08.183Z,3.60
2019-01-02T00:57:37.231Z,3.60
2019-01-02T01:00:17.884Z,3.60
2019-01-02T01:02:46.452Z,3.90
2019-01-02T01:05:15.039Z,3.60
2019-01-02T01:07:44.028Z,3.50
2019-01-02T01:10:15.407Z,3.60
2019-01-02T01:15:12.564Z,3.30
2019-01-02T01:17:41.464Z,3.30
2019-01-02T01:20:15.659Z,3.40
2019-01-02T01:22:44.202Z,3.30
2019-01-02T01:25:12.776Z,3.30
2019-01-02T01:27:41.865Z,2.90
2019-01-02T01:30:11.097Z,3.10
2019-01-02T01:32:39.897Z,1.80
2019-01-02T01:35:10.701Z,1.20
2019-01-02T01:37:41.582Z,1.00
2019-01-02T01:40:11.738Z,0.60
2019-01-02T01:42:40.472Z,0.70
2019-01-02T01:45:10.686Z,0.80
2019-01-02T01:47:39.566Z,0.80
2019-01-02T01:50:09.770Z,0.90
2019-01-02T01:52:38.892Z,0.90
2019-01-02T01:55:07.829Z,0.90
2019-01-02T01:57:36.798Z,1.00
2019-01-02T02:00:11.420Z,1.00
2019-01-02T02:02:40.036Z,1.10
2019-01-02T02:05:09.733Z,1.10
2019-01-02T02:07:38.831Z,1.00
2019-01-02T02:10:15.501Z,1.10
2019-01-02T02:12:44.007Z,1.10
2019-01-02T02:15:12.581Z,1.20
2019-01-02T02:17:42.495Z,1.20
2019-01-02T02:20:12.526Z,1.20
2019-01-02T02:22:41.153Z,1.20
2019-01-02T02:25:12.536Z,1.30
2019-01-02T02:27:41.024Z,1.40
2019-01-02T02:30:12.954Z,1.30
2019-01-02T02:32:42.035Z,1.30
2019-01-02T02:35:12.470Z,1.30
2019-01-02T02:37:41.035Z,1.30
2019-01-02T02:40:12.148Z,1.30
2019-01-02T02:42:41.233Z,1.30
2019-01-02T02:45:11.964Z,1.30
2019-01-02T02:47:40.901Z,1.30
2019-01-02T02:50:14.604Z,1.40
2019-01-02T02:52:43.195Z,1.40
2019-01-02T02:55:14.959Z,1.30
2019-01-02T02:57:43.513Z,1.30
2019-01-02T03:00:14.543Z,1.30
2019-01-02T03:02:43.161Z,1.20
2019-01-02T03:05:13.856Z,1.20
2019-01-02T03:07:42.693Z,1.20
2019-01-02T03:10:13.573Z,1.30
2019-01-02T03:12:42.598Z,1.40
2019-01-02T03:15:12.157Z,1.50
2019-01-02T03:17:41.393Z,1.50
2019-01-02T03:20:12.217Z,1.50
2019-01-02T03:22:41.188Z,1.60
2019-01-02T03:25:12.631Z,1.60
2019-01-02T03:27:41.559Z,1.60
2019-01-02T03:30:12.923Z,1.50
2019-01-02T03:32:41.651Z,1.50
2019-01-02T03:35:11.849Z,1.40
2019-01-02T03:37:40.595Z,1.40
2019-01-02T03:40:11.306Z,1.50
2019-01-02T03:42:39.887Z,1.50
2019-01-02T03:45:11.079Z,1.50
2019-01-02T03:47:39.603Z,1.50
2019-01-02T03:50:11.227Z,1.50
2019-01-02T03:52:39.683Z,1.50
2019-01-02T03:55:10.149Z,1.40
2019-01-02T03:57:38.768Z,1.40
2019-01-02T04:00:14.426Z,1.30
2019-01-02T04:02:43.488Z,1.30
2019-01-02T04:05:14.391Z,1.20
2019-01-02T04:07:45.086Z,1.20
2019-01-02T04:10:14.390Z,1.20
2019-01-02T04:12:42.912Z,1.10
2019-01-02T04:15:11.414Z,1.10
2019-01-02T04:17:39.933Z,1.10
2019-01-02T04:20:08.759Z,1.10
2019-01-02T04:22:38.638Z,1.20
2019-01-02T04:25:08.561Z,1.30
2019-01-02T04:27:37.081Z,1.30
2019-01-02T04:30:08.607Z,1.30
2019-01-02T04:32:37.090Z,1.40
2019-01-02T04:35:06.326Z,1.40
2019-01-02T04:37:34.854Z,1.40
2019-01-02T04:40:03.836Z,1.40
2019-01-02T04:42:32.384Z,1.40
2019-01-02T04:45:00.844Z,1.40
2019-01-02T04:47:29.324Z,1.50
2019-01-02T04:49:57.778Z,1.50
2019-01-02T04:52:26.299Z,1.50
2019-01-02T04:54:54.807Z,1.50
2019-01-02T04:57:23.316Z,1.50
2019-01-02T04:59:51.810Z,1.60
2019-01-02T05:02:20.359Z,1.60
2019-01-02T05:04:48.883Z,1.60
2019-01-02T05:07:17.379Z,1.60
2019-01-02T05:09:45.853Z,1.60
2019-01-02T05:12:14.300Z,1.60
2019-01-02T05:14:42.798Z,1.60
2019-01-02T05:17:11.253Z,1.60
2019-01-02T05:19:40.086Z,1.60
2019-01-02T05:22:08.565Z,1.60
2019-01-02T05:24:37.107Z,1.60
2019-01-02T05:27:05.552Z,1.60
2019-01-02T05:29:34.031Z,1.60
2019-01-02T05:32:02.498Z,1.70
2019-01-02T05:34:31.215Z,1.70
2019-01-02T05:36:59.837Z,1.70
2019-01-02T05:39:28.316Z,1.70
2019-01-02T05:41:58.309Z,1.70
2019-01-02T05:44:26.802Z,1.70
2019-01-02T05:46:55.317Z,1.70
2019-01-02T05:49:23.820Z,1.70
2019-01-02T05:51:52.282Z,1.70
2019-01-02T05:54:20.837Z,1.70
2019-01-02T05:56:49.289Z,1.70
2019-01-02T05:59:19.275Z,1.70
2019-01-02T06:01:48.018Z,1.70
2019-01-02T06:04:16.477Z,1.70
2019-01-02T06:06:44.966Z,1.60
2019-01-02T06:09:13.450Z,1.70
2019-01-02T06:11:42.007Z,1.70
2019-01-02T06:14:10.485Z,1.70
2019-01-02T06:16:39.005Z,1.70
2019-01-02T06:19:07.557Z,1.70
2019-01-02T06:21:36.107Z,1.70
2019-01-02T06:24:04.645Z,1.70
2019-01-02T06:26:33.087Z,1.60
2019-01-02T06:29:02.354Z,1.60
2019-01-02T06:31:31.867Z,1.60
2019-01-02T06:34:00.424Z,1.50
2019-01-02T06:36:28.922Z,1.50
2019-01-02T06:38:57.438Z,1.50
2019-01-02T06:41:25.892Z,1.40
2019-01-02T06:43:54.385Z,1.40
2019-01-02T06:46:22.831Z,1.40
2019-01-02T06:48:51.312Z,1.40
2019-01-02T06:51:19.773Z,1.40
2019-01-02T06:53:49.443Z,1.40
2019-01-02T06:56:18.027Z,1.30
2019-01-02T06:58:46.483Z,1.40
2019-01-02T07:01:14.975Z,1.40
2019-01-02T07:03:43.412Z,1.40
2019-01-02T07:06:11.890Z,1.40
2019-01-02T07:08:40.341Z,1.40
2019-01-02T07:11:08.836Z,1.50
2019-01-02T07:13:37.281Z,1.40
2019-01-02T07:16:05.829Z,1.50
2019-01-02T07:18:34.346Z,1.40
2019-01-02T07:21:02.832Z,1.40
2019-01-02T07:23:31.353Z,1.40
2019-01-02T07:25:59.914Z,1.50
2019-01-02T07:28:28.354Z,1.50
2019-01-02T07:30:56.795Z,1.50
2019-01-02T07:33:28.360Z,1.50
2019-01-02T07:36:02.487Z,1.50
2019-01-02T07:38:39.993Z,1.50
2019-01-02T07:41:43.148Z,1.50
2019-01-02T07:44:33.757Z,1.50
2019-01-02T07:47:24.876Z,1.50
2019-01-02T07:50:14.175Z,1.50
2019-01-02T07:53:03.405Z,1.50
2019-01-02T07:55:49.667Z,1.50
2019-01-02T07:58:45.315Z,1.50
2019-01-02T08:01:31.823Z,1.50
2019-01-02T08:04:09.386Z,1.40
2019-01-02T08:06:55.493Z,1.90
2019-01-02T08:09:50.773Z,1.50
2019-01-02T08:12:31.165Z,1.50
2019-01-02T08:15:20.687Z,1.50
2019-01-02T08:18:03.898Z,1.50
2019-01-02T08:20:44.140Z,1.50
2019-01-02T08:23:21.433Z,1.60
2019-01-02T08:26:04.608Z,1.60
2019-01-02T08:28:52.547Z,1.60
2019-01-02T08:31:42.501Z,1.70
2019-01-02T08:34:19.718Z,1.70
2019-01-02T08:37:03.302Z,1.80
2019-01-02T08:39:46.806Z,1.90
2019-01-02T08:42:30.393Z,1.90
2019-01-02T08:45:04.885Z,1.90
2019-01-02T08:47:45.573Z,1.90
2019-01-02T08:50:25.782Z,1.90
2019-01-02T08:53:16.711Z,1.90
2019-01-02T08:55:48.349Z,1.90
2019-01-02T08:58:19.871Z,1.90
2019-01-02T09:01:21.251Z,1.90
2019-01-02T09:04:04.493Z,1.90
2019-01-02T09:06:41.969Z,1.90
2019-01-02T09:09:28.164Z,2.00
2019-01-02T09:12:02.666Z,2.00
2019-01-02T09:14:53.408Z,2.00
2019-01-02T09:17:33.447Z,2.00
2019-01-02T09:20:05.005Z,2.00
2019-01-02T09:22:39.503Z,2.00
2019-01-02T09:25:22.881Z,2.00
2019-01-02T09:28:00.130Z,2.00
2019-01-02T09:31:06.210Z,2.00
2019-01-02T09:33:52.208Z,2.20
2019-01-02T09:36:31.150Z,2.30
2019-01-02T09:39:11.470Z,2.30
2019-01-02T09:41:42.999Z,2.30
2019-01-02T09:44:39.704Z,2.20
2019-01-02T09:47:16.956Z,2.20
2019-01-02T09:49:48.554Z,2.30
2019-01-02T09:52:47.124Z,2.30
2019-01-02T09:55:38.111Z,2.30
2019-01-02T09:58:24.602Z,2.40
2019-01-02T10:00:56.152Z,2.40
2019-01-02T10:03:42.740Z,2.50
2019-01-02T10:06:36.601Z,2.50
2019-01-02T10:09:20.011Z,2.50
2019-01-02T10:12:06.198Z,2.50
2019-01-02T10:14:55.900Z,2.40
2019-01-02T10:17:36.339Z,2.50
2019-01-02T10:20:31.666Z,2.60
2019-01-02T10:23:03.204Z,2.60
2019-01-02T10:25:54.114Z,2.50
2019-01-02T10:28:43.773Z,2.60
2019-01-02T10:31:39.310Z,2.60
2019-01-02T10:34:16.762Z,2.70
2019-01-02T10:36:54.348Z,2.60
2019-01-02T10:39:37.845Z,2.60
2019-01-02T10:42:23.569Z,2.60
2019-01-02T10:45:03.889Z,2.50
2019-01-02T10:47:35.481Z,2.50
2019-01-02T10:50:18.817Z,2.60
2019-01-02T10:53:15.666Z,2.70
2019-01-02T10:55:53.091Z,2.90
2019-01-02T10:58:45.646Z,3.00
2019-01-02T11:01:31.929Z,3.00
2019-01-02T11:04:15.225Z,3.10
2019-01-02T11:06:52.502Z,3.20
2019-01-02T11:09:39.165Z,3.00
2019-01-02T11:12:19.533Z,3.00
2019-01-02T11:15:13.365Z,3.00
2019-01-02T11:17:50.924Z,3.10
2019-01-02T11:20:34.173Z,3.30
2019-01-02T11:23:22.021Z,3.50
2019-01-02T11:26:05.032Z,3.60
2019-01-02T11:28:39.326Z,3.60
2019-01-02T11:31:16.731Z,3.50
2019-01-02T11:34:06.055Z,3.50
2019-01-02T11:36:52.395Z,3.40
2019-01-02T11:39:35.721Z,3.30
2019-01-02T11:42:26.508Z,3.30
2019-01-02T11:45:09.514Z,3.30
2019-01-02T11:47:38.185Z,3.30
2019-01-02T11:50:09.483Z,3.30
2019-01-02T11:52:38.038Z,3.30
2019-01-02T11:55:08.593Z,3.30
2019-01-02T11:57:37.045Z,3.20
2019-01-02T12:00:08.619Z,3.20
2019-01-02T12:02:37.057Z,3.10
2019-01-02T12:05:06.396Z,3.20
2019-01-02T12:07:35.054Z,3.10
2019-01-02T12:10:06.101Z,3.00
2019-01-02T12:12:34.649Z,3.00
2019-01-02T12:15:03.120Z,3.00
2019-01-02T12:17:31.660Z,3.00
2019-01-02T12:20:00.525Z,3.10
2019-01-02T12:22:29.129Z,3.00
2019-01-02T12:24:57.719Z,3.10
2019-01-02T12:27:26.313Z,3.10
2019-01-02T12:29:54.811Z,3.10
2019-01-02T12:32:23.598Z,3.10
2019-01-02T12:34:52.573Z,3.10
2019-01-02T12:37:21.112Z,3.10
2019-01-02T12:39:49.628Z,3.10
2019-01-02T12:42:18.200Z,3.00
2019-01-02T12:44:46.647Z,3.00
2019-01-02T12:47:15.480Z,3.00
2019-01-02T12:49:44.079Z,2.80
2019-01-02T12:52:12.602Z,1.90
2019-01-02T12:54:41.141Z,1.60
2019-01-02T12:57:11.771Z,1.70
2019-01-02T12:59:42.104Z,1.40
2019-01-02T13:02:19.642Z,0.60
2019-01-02T13:05:09.214Z,0.60
2019-01-02T13:08:01.038Z,-0.30
2019-01-02T13:10:32.851Z,-0.40
2019-01-02T13:13:07.180Z,-0.50
2019-01-02T13:15:41.762Z,-0.70
2019-01-02T13:18:38.637Z,-0.80
2019-01-02T13:21:25.168Z,-0.90
2019-01-02T13:23:59.488Z,-0.70
2019-01-02T13:26:31.068Z,-0.70
2019-01-02T13:29:08.447Z,-0.80
2019-01-02T13:31:59.099Z,-0.80
2019-01-02T13:34:36.653Z,-0.60
2019-01-02T13:37:11.163Z,-0.40
2019-01-02T13:40:18.559Z,-0.40
2019-01-02T13:42:55.623Z,-0.40
2019-01-02T13:45:29.750Z,-0.40
2019-01-02T13:48:01.314Z,-0.30
2019-01-02T13:50:52.534Z,-0.20
2019-01-02T13:53:21.037Z,-0.20
2019-01-02T13:55:49.629Z,-0.20
2019-01-02T13:58:20.069Z,-0.30
2019-01-02T14:00:49.223Z,-0.50
2019-01-02T14:03:17.763Z,-0.80
2019-01-02T14:05:46.342Z,-1.00
2019-01-02T14:08:14.948Z,-1.10
2019-01-02T14:10:44.622Z,-1.10
2019-01-02T14:13:13.175Z,-1.00
2019-01-02T14:15:41.691Z,-1.00
2019-01-02T14:18:10.165Z,-0.90
2019-01-02T14:20:38.700Z,-0.80
2019-01-02T14:23:07.281Z,-0.80
2019-01-02T14:25:35.803Z,-0.80
2019-01-02T14:28:04.698Z,-0.70
2019-01-02T14:30:33.239Z,-0.70
2019-01-02T14:33:01.875Z,-0.70
2019-01-02T14:35:30.427Z,-0.70
2019-01-02T14:37:58.954Z,-0.60
2019-01-02T14:40:27.477Z,-0.60
2019-01-02T14:42:55.957Z,-0.60
2019-01-02T14:45:24.467Z,-0.50
2019-01-02T14:47:53.188Z,-0.50
2019-01-02T14:50:21.840Z,-0.50
2019-01-02T14:52:50.375Z,-0.50
2019-01-02T14:55:18.995Z,-0.50
2019-01-02T14:57:48.447Z,-0.40
2019-01-02T15:00:17.722Z,-0.50
2019-01-02T15:02:46.298Z,-0.50
2019-01-02T15:05:14.863Z,-0.50
2019-01-02T15:07:43.450Z,-0.60
2019-01-02T15:10:12.187Z,-0.70
2019-01-02T15:12:42.390Z,-0.60
2019-01-02T15:15:10.929Z,-0.60
2019-01-02T15:17:39.691Z,-0.70
2019-01-02T15:20:10.147Z,-0.70
2019-01-02T15:22:38.661Z,-0.40
2019-01-02T15:25:08.026Z,-0.20
2019-01-02T15:27:36.837Z,-0.50
2019-01-02T15:30:08.562Z,-0.40
2019-01-02T15:32:38.558Z,-0.50
2019-01-02T15:35:07.701Z,-0.50
2019-01-02T15:37:36.499Z,-0.40
2019-01-02T15:40:07.717Z,-0.70
2019-01-02T15:42:36.285Z,-0.50
2019-01-02T15:45:06.318Z,-0.50
2019-01-02T15:47:34.849Z,-0.60
2019-01-02T15:52:32.368Z,-0.90
2019-01-02T15:55:01.027Z,-0.80
2019-01-02T15:57:31.509Z,-0.80
2019-01-02T16:00:00.012Z,-1.00
2019-01-02T16:02:28.598Z,-0.90
2019-01-02T16:04:58.056Z,-0.60
2019-01-02T16:07:27.232Z,-0.80
2019-01-02T16:09:55.764Z,-0.60
2019-01-02T16:12:24.342Z,-0.60
2019-01-02T16:14:54.474Z,-0.70
2019-01-02T16:17:24.794Z,-0.90
2019-01-02T16:19:53.337Z,-0.70
2019-01-02T16:24:50.196Z,-0.60
2019-01-02T16:27:19.108Z,-0.40
2019-01-02T16:29:47.598Z,-0.90
2019-01-02T16:32:16.170Z,-0.90
2019-01-02T16:34:44.716Z,-1.00
2019-01-02T16:37:13.403Z,-1.20
2019-01-02T16:39:42.030Z,-1.00
2019-01-02T16:42:11.655Z,-1.00
2019-01-02T16:44:40.228Z,-0.90
2019-01-02T16:49:37.384Z,-0.50
2019-01-02T16:54:35.301Z,-1.40
2019-01-02T16:57:04.003Z,-1.40
2019-01-02T16:59:32.575Z,-1.50
2019-01-02T17:02:02.002Z,-1.50
2019-01-02T17:04:30.533Z,-1.60
2019-01-02T17:06:59.196Z,-1.50
2019-01-02T17:11:56.091Z,-1.50
2019-01-02T17:14:24.692Z,-1.80
2019-01-02T17:16:53.248Z,-1.50
2019-01-02T17:21:50.152Z,-1.60
2019-01-02T17:24:18.716Z,-1.60
2019-01-02T17:26:47.279Z,-1.70
2019-01-02T17:29:15.905Z,-1.60
2019-01-02T17:31:45.608Z,-1.40
2019-01-02T17:34:14.280Z,-1.40
2019-01-02T17:36:42.805Z,-1.60
2019-01-02T17:39:11.339Z,-0.90
2019-01-02T17:44:09.804Z,-1.60
2019-01-02T17:46:38.472Z,-1.60
2019-01-02T17:49:07.049Z,-1.70
2019-01-02T17:56:34.174Z,-1.80
2019-01-02T17:59:03.651Z,-1.50
2019-01-02T18:01:32.247Z,-1.60
2019-01-02T18:04:01.063Z,-1.60
2019-01-02T18:06:29.736Z,-1.60
2019-01-02T18:08:58.316Z,-1.70
2019-01-02T18:11:26.975Z,-1.70
2019-01-02T18:13:55.467Z,-1.70
2019-01-02T18:16:24.182Z,-1.70
2019-01-02T18:18:55.419Z,-1.80
2019-01-02T18:23:52.250Z,-1.70
2019-01-02T18:26:20.860Z,-1.90
2019-01-02T18:28:49.537Z,-1.70
2019-01-02T18:31:19.529Z,-2.60
2019-01-02T18:36:16.317Z,-2.00
2019-01-02T18:38:47.026Z,-2.20
2019-01-02T18:41:17.440Z,-2.30
2019-01-02T18:43:46.070Z,-1.80
2019-01-02T18:46:15.131Z,-2.50
2019-01-02T18:48:44.076Z,-2.60
2019-01-02T18:51:12.680Z,-2.40
2019-01-02T18:53:42.786Z,-2.50
2019-01-02T18:58:40.973Z,-2.60
2019-01-02T19:01:11.460Z,-2.50
2019-01-02T19:03:39.884Z,-2.50
2019-01-02T19:06:08.486Z,-2.40
2019-01-02T19:08:38.430Z,-2.40
2019-01-02T19:11:07.902Z,-2.80
2019-01-02T19:13:36.543Z,-2.60
2019-01-02T19:16:05.934Z,-3.00
2019-01-02T19:18:34.487Z,-2.80
2019-01-02T19:21:03.155Z,-2.80
2019-01-02T19:23:31.734Z,-2.90
2019-01-02T19:26:00.623Z,-2.10
2019-01-02T19:28:30.562Z,-2.90
2019-01-02T19:30:59.693Z,-2.60
2019-01-02T19:33:28.669Z,-3.10
2019-01-02T19:35:57.386Z,-2.90
2019-01-02T19:38:28.961Z,-2.80
2019-01-02T19:40:57.601Z,-2.10
2019-01-02T19:43:27.443Z,-2.60
2019-01-02T19:45:56.115Z,-2.60
2019-01-02T19:48:24.939Z,-2.70
2019-01-02T19:50:54.475Z,-2.60
2019-01-02T19:53:23.054Z,-2.70
2019-01-02T19:55:52.735Z,-2.50
2019-01-02T20:00:55.109Z,-2.50
2019-01-02T20:03:23.815Z,-2.40
2019-01-02T20:05:56.164Z,-2.60
2019-01-02T20:08:27.440Z,-2.30
2019-01-02T20:10:56.149Z,-2.40
2019-01-02T20:13:30.527Z,-1.80
2019-01-02T20:16:00.673Z,-2.20
2019-01-02T20:18:30.894Z,-2.00
2019-01-02T20:21:02.208Z,-2.10
2019-01-02T20:23:32.807Z,-2.00
2019-01-02T20:26:03.851Z,-1.90
2019-01-02T20:28:33.359Z,-2.00
2019-01-02T20:31:03.558Z,-1.70
2019-01-02T20:33:33.037Z,-1.80
2019-01-02T20:38:29.999Z,-1.40
2019-01-02T20:41:02.702Z,-2.10
2019-01-02T20:43:31.299Z,-1.50
2019-01-02T20:46:00.355Z,-1.60
2019-01-02T20:48:30.703Z,-1.40
2019-01-02T20:50:59.282Z,-1.30
2019-01-02T20:56:00.934Z,-1.00
2019-01-02T20:58:29.838Z,-1.10
2019-01-02T21:00:58.471Z,-1.00
2019-01-02T21:03:27.071Z,-1.50
2019-01-02T21:05:58.620Z,-1.70
2019-01-02T21:08:27.256Z,-1.30
2019-01-02T21:10:58.937Z,-1.50
2019-01-02T21:13:31.380Z,-1.40
2019-01-02T21:16:01.112Z,-2.00
2019-01-02T21:18:32.085Z,-1.60
2019-01-02T21:23:35.126Z,-1.30
2019-01-02T21:26:05.459Z,-1.30
2019-01-02T21:28:34.180Z,-1.50
2019-01-02T21:31:03.111Z,-1.10
2019-01-02T21:33:32.419Z,-1.30
2019-01-02T21:36:01.582Z,-1.10
2019-01-02T21:38:31.320Z,-1.40
2019-01-02T21:41:00.046Z,-1.30
2019-01-02T21:43:28.941Z,-1.20
2019-01-02T21:46:00.483Z,-1.50
2019-01-02T21:48:30.420Z,-1.20
2019-01-02T21:51:02.758Z,-1.50
2019-01-02T21:53:31.498Z,-1.10
2019-01-02T21:56:00.737Z,-1.10
2019-01-02T21:58:33.308Z,-1.20
2019-01-02T22:01:09.906Z,-1.00
2019-01-02T22:03:42.138Z,-1.10
2019-01-02T22:06:11.853Z,-1.30
2019-01-02T22:11:11.462Z,-1.30
2019-01-02T22:16:10.181Z,-1.50
2019-01-02T22:18:39.955Z,-1.30
2019-01-02T22:21:08.683Z,-1.50
2019-01-02T22:23:37.242Z,-1.30
2019-01-02T22:26:18.055Z,-1.30
2019-01-02T22:28:46.358Z,-1.20
2019-01-02T22:31:16.277Z,-1.20
2019-01-02T22:36:14.383Z,-1.30
2019-01-02T22:38:43.946Z,-1.20
2019-01-02T22:41:12.541Z,-1.20
2019-01-02T22:43:41.112Z,-1.30
2019-01-02T22:46:09.703Z,-1.00
2019-01-02T22:48:38.340Z,-1.20
2019-01-02T22:51:06.941Z,-1.10
2019-01-02T22:53:35.482Z,-1.20
2019-01-02T22:56:04.795Z,-1.20
2019-01-02T22:58:33.332Z,-1.00
2019-01-02T23:01:12.656Z,-1.00
2019-01-02T23:03:48.106Z,-1.30
2019-01-02T23:06:18.895Z,-1.30
2019-01-02T23:08:49.106Z,-1.60
2019-01-02T23:11:19.307Z,-1.30
2019-01-02T23:14:05.442Z,-1.70
2019-01-02T23:16:47.693Z,-1.70
2019-01-02T23:19:23.594Z,-1.80
2019-01-02T23:22:10.876Z,-1.70
2019-01-02T23:24:47.062Z,-1.20
2019-01-02T23:27:19.885Z,-1.80
2019-01-02T23:29:51.620Z,-2.20
2019-01-02T23:32:39.923Z,-2.00
2019-01-02T23:35:26.153Z,-2.00
2019-01-02T23:37:59.282Z,-2.20
2019-01-02T23:40:46.665Z,-2.20
2019-01-02T23:43:33.052Z,-2.30
2019-01-02T23:46:15.130Z,-2.20
2019-01-02T23:48:51.206Z,-2.40
2019-01-02T23:51:33.319Z,-2.30
2019-01-02T23:54:19.580Z,-2.30
2019-01-02T23:57:05.782Z,-2.00
2019-01-02T23:59:35.908Z,-2.50
